Time,TemperatureF,DewpointF,PressureIn,WindDirection,WindDirectionDegrees,WindSpeedMPH,WindSpeedGustMPH,Humidity,HourlyPrecipIn,Conditions,Clouds,dailyrainin,SoftwareType,DateUTC
2013-09-20 00:00:00,69.0,68.1,29.79,SE,127,4.0,12.0,97,0.02,,---,0.03,VWS V14.01,2013-09-20 04:00:00,
2013-09-20 16:03:00,67.4,67.4,29.20,WNW,294,5.0,5.0,100,0.00,,---,0.03,VWS V14.01,2013-09-20 20:03:00,
2013-09-20 16:04:00,67.4,67.4,29.20,WNW,294,2.0,5.0,100,0.00,,---,0.00,VWS V14.01,2013-09-20 20:04:00,
2013-09-20 16:05:00,67.4,67.4,29.20,WNW,294,1.0,5.0,100,0.00,,---,0.00,VWS V14.01,2013-09-20 20:05:00,
2013-09-20 16:10:00,67.3,67.3,29.19,WNW,294,1.0,5.0,100,0.00,,---,0.00,VWS V14.01,2013-09-20 20:10:00,
2013-09-20 16:15:00,67.5,65.7,29.68,WNW,294,4.0,6.0,94,0.00,,---,0.00,VWS V14.01,2013-09-20 20:15:00,
2013-09-20 16:20:00,67.5,65.7,29.69,West,260,4.0,7.0,94,0.00,,---,0.00,VWS V14.01,2013-09-20 20:20:00,
2013-09-20 16:25:00,67.7,65.9,29.69,West,280,4.0,7.0,94,0.00,,---,0.00,VWS V14.01,2013-09-20 20:25:00,
2013-09-20 16:30:00,67.9,66.1,29.69,West,272,5.0,5.0,94,0.00,,---,0.00,VWS V14.01,2013-09-20 20:30:00,
2013-09-20 16:35:00,67.8,65.7,29.68,WSW,241,4.0,9.0,93,0.00,,---,0.00,VWS V14.01,2013-09-20 20:35:00,
2013-09-20 16:40:00,68.0,65.9,29.68,NW,311,2.0,9.0,93,0.00,,---,0.00,VWS V14.01,2013-09-20 20:40:00,
2013-09-20 16:45:00,68.0,65.9,29.68,SSW,211,2.0,9.0,93,0.00,,---,0.00,VWS V14.01,2013-09-20 20:45:00,
2013-09-20 16:50:00,68.2,65.8,29.68,WSW,250,10.0,10.0,92,0.00,,---,0.00,VWS V14.01,2013-09-20 20:50:00,
2013-09-20 16:55:00,68.2,65.8,29.68,WSW,250,2.0,10.0,92,0.00,,---,0.00,VWS V14.01,2013-09-20 20:55:00,
2013-09-20 17:00:00,68.2,65.8,29.69,NW,321,4.0,6.0,92,0.00,,---,0.00,VWS V14.01,2013-09-20 21:00:00,
2013-09-20 17:05:00,68.2,65.5,29.68,WSW,251,2.0,7.0,91,0.00,,---,0.00,VWS V14.01,2013-09-20 21:05:00,
2013-09-20 17:10:00,68.2,65.5,29.68,SSW,212,5.0,9.0,91,0.00,,---,0.00,VWS V14.01,2013-09-20 21:10:00,
2013-09-20 17:15:00,68.2,65.5,29.68,West,260,3.0,9.0,91,0.00,,---,0.00,VWS V14.01,2013-09-20 21:15:00,
2013-09-20 17:20:00,68.0,65.3,29.68,WSW,258,2.0,9.0,91,0.00,,---,0.00,VWS V14.01,2013-09-20 21:20:00,
2013-09-20 17:25:00,68.0,65.0,29.69,SSW,199,3.0,9.0,90,0.00,,---,0.00,VWS V14.01,2013-09-20 21:25:00,
2013-09-20 17:30:00,67.9,64.9,29.69,West,263,4.0,8.0,90,0.00,,---,0.00,VWS V14.01,2013-09-20 21:30:00,
2013-09-20 17:35:00,67.7,64.7,29.69,West,269,3.0,8.0,90,0.00,,---,0.00,VWS V14.01,2013-09-20 21:35:00,
2013-09-20 17:40:00,67.5,64.8,29.69,West,268,3.0,8.0,91,0.00,,---,0.00,VWS V14.01,2013-09-20 21:40:00,
2013-09-20 17:46:00,67.4,64.7,29.69,WNW,290,1.0,8.0,91,0.00,,---,0.00,VWS V14.01,2013-09-20 21:46:00,
2013-09-20 17:51:00,67.4,64.7,29.69,SW,232,2.0,8.0,91,0.00,,---,0.00,VWS V14.01,2013-09-20 21:51:00,
2013-09-20 17:56:00,67.1,64.4,29.68,West,271,4.0,8.0,91,0.00,,---,0.00,VWS V14.01,2013-09-20 21:56:00,
2013-09-20 18:00:00,68.2,65.8,29.69,NW,321,2.0,10.0,92,0.00,,---,0.00,VWS V14.01,2013-09-20 22:00:00,
2013-09-20 18:01:00,67.2,64.8,29.68,NW,323,2.0,8.0,92,0.00,,---,0.00,VWS V14.01,2013-09-20 22:01:00,
2013-09-20 18:06:00,67.0,64.3,29.68,NW,315,4.0,10.0,91,0.00,,---,0.00,VWS V14.01,2013-09-20 22:06:00,
2013-09-20 18:11:00,66.8,63.8,29.68,SSW,211,6.0,10.0,90,0.00,,---,0.00,VWS V14.01,2013-09-20 22:11:00,
2013-09-20 18:16:00,66.7,63.7,29.69,West,279,1.0,10.0,90,0.00,,---,0.00,VWS V14.01,2013-09-20 22:16:00,
2013-09-20 18:21:00,66.5,63.5,29.69,SW,229,2.0,10.0,90,0.00,,---,0.00,VWS V14.01,2013-09-20 22:21:00,
2013-09-20 18:26:00,66.4,63.4,29.69,West,276,2.0,10.0,90,0.00,,---,0.00,VWS V14.01,2013-09-20 22:26:00,
2013-09-20 18:30:00,67.9,64.9,29.68,West,272,3.0,9.0,90,0.00,,---,0.00,VWS V14.01,2013-09-20 22:30:00,
2013-09-20 18:31:00,66.2,63.2,29.69,NW,304,4.0,5.0,90,0.00,,---,0.00,VWS V14.01,2013-09-20 22:31:00,
2013-09-20 18:36:00,66.2,62.9,29.69,West,264,5.0,7.0,89,0.00,,---,0.00,VWS V14.01,2013-09-20 22:36:00,
2013-09-20 18:41:00,66.0,62.7,29.69,West,264,5.0,7.0,89,0.00,,---,0.00,VWS V14.01,2013-09-20 22:41:00,
2013-09-20 18:46:00,65.9,62.6,29.69,WNW,285,2.0,7.0,89,0.00,,---,0.00,VWS V14.01,2013-09-20 22:46:00,
2013-09-20 18:51:00,65.7,62.4,29.69,West,271,3.0,7.0,89,0.00,,---,0.00,VWS V14.01,2013-09-20 22:51:00,
2013-09-20 18:56:00,65.7,62.4,29.69,West,259,1.0,7.0,89,0.00,,---,0.00,VWS V14.01,2013-09-20 22:56:00,
2013-09-20 19:00:00,67.2,64.8,29.68,WNW,299,2.0,8.0,92,0.00,,---,0.00,VWS V14.01,2013-09-20 23:00:00,
2013-09-20 19:01:00,65.6,62.3,29.69,SW,223,1.0,4.0,89,0.00,,---,0.00,VWS V14.01,2013-09-20 23:01:00,
2013-09-20 19:06:00,65.4,62.1,29.69,SW,221,1.0,5.0,89,0.00,,---,0.00,VWS V14.01,2013-09-20 23:06:00,
2013-09-20 19:11:00,65.4,62.1,29.69,WNW,282,1.0,5.0,89,0.00,,---,0.00,VWS V14.01,2013-09-20 23:11:00,
2013-09-20 19:16:00,65.2,61.9,29.69,NW,321,0.0,7.0,89,0.00,,---,0.00,VWS V14.01,2013-09-20 23:16:00,
2013-09-20 19:21:00,65.2,61.9,29.69,SSW,209,1.0,7.0,89,0.00,,---,0.00,VWS V14.01,2013-09-20 23:21:00,
2013-09-20 19:26:00,65.3,62.0,29.69,West,275,0.0,7.0,89,0.00,,---,0.00,VWS V14.01,2013-09-20 23:26:00,
2013-09-20 19:30:00,66.2,62.9,29.69,WSW,256,2.0,10.0,89,0.00,,---,0.00,VWS V14.01,2013-09-20 23:30:00,
2013-09-20 19:31:00,65.1,61.8,29.69,West,260,1.0,5.0,89,0.00,,---,0.00,VWS V14.01,2013-09-20 23:31:00,
2013-09-20 19:36:00,65.1,61.8,29.70,West,260,0.0,5.0,89,0.00,,---,0.00,VWS V14.01,2013-09-20 23:36:00,
2013-09-20 19:41:00,64.9,61.6,29.70,West,262,3.0,5.0,89,0.00,,---,0.00,VWS V14.01,2013-09-20 23:41:00,
2013-09-20 19:46:00,64.9,61.6,29.69,West,263,1.0,5.0,89,0.00,,---,0.00,VWS V14.01,2013-09-20 23:46:00,
2013-09-20 19:51:00,64.9,61.6,29.70,West,263,0.0,5.0,89,0.00,,---,0.00,VWS V14.01,2013-09-20 23:51:00,
2013-09-20 19:56:00,64.9,61.6,29.70,West,263,0.0,5.0,89,0.00,,---,0.00,VWS V14.01,2013-09-20 23:56:00,
2013-09-20 20:00:00,65.6,62.3,29.69,SW,223,2.0,8.0,89,0.00,,---,0.00,VWS V14.01,2013-09-21 00:00:00,
2013-09-20 20:01:00,64.9,61.6,29.70,West,263,0.0,1.0,89,0.01,,---,0.01,VWS V14.01,2013-09-21 00:01:00,
2013-09-20 20:06:00,64.8,61.5,29.70,West,263,0.0,2.0,89,0.01,,---,0.01,VWS V14.01,2013-09-21 00:06:00,
2013-09-20 20:11:00,64.8,61.5,29.70,West,263,0.0,2.0,89,0.01,,---,0.01,VWS V14.01,2013-09-21 00:11:00,
2013-09-20 20:16:00,64.4,61.4,29.70,West,263,1.0,3.0,90,0.01,,---,0.01,VWS V14.01,2013-09-21 00:16:00,
2013-09-20 20:21:00,64.3,61.3,29.70,West,263,0.0,3.0,90,0.01,,---,0.01,VWS V14.01,2013-09-21 00:21:00,
2013-09-20 20:26:00,64.2,61.2,29.70,West,263,0.0,3.0,90,0.01,,---,0.01,VWS V14.01,2013-09-21 00:26:00,
2013-09-20 20:30:00,65.1,61.8,29.69,West,260,2.0,7.0,89,0.00,,---,0.00,VWS V14.01,2013-09-21 00:30:00,
2013-09-20 20:31:00,64.3,61.3,29.70,West,263,1.0,2.0,90,0.01,,---,0.01,VWS V14.01,2013-09-21 00:31:00,
2013-09-20 20:36:00,64.3,61.3,29.70,West,263,0.0,2.0,90,0.01,,---,0.01,VWS V14.01,2013-09-21 00:36:00,
2013-09-20 20:41:00,64.3,61.3,29.70,West,263,1.0,3.0,90,0.01,,---,0.01,VWS V14.01,2013-09-21 00:41:00,
2013-09-20 20:46:00,64.3,61.3,29.70,West,263,0.0,3.0,90,0.01,,---,0.01,VWS V14.01,2013-09-21 00:46:00,
2013-09-20 20:51:00,64.3,61.3,29.70,West,263,1.0,3.0,90,0.01,,---,0.01,VWS V14.01,2013-09-21 00:51:00,
2013-09-20 20:56:00,64.1,61.1,29.70,West,263,0.0,3.0,90,0.01,,---,0.01,VWS V14.01,2013-09-21 00:56:00,
2013-09-20 21:00:00,64.9,61.6,29.70,West,263,0.0,5.0,89,0.01,,---,0.01,VWS V14.01,2013-09-21 01:00:00,
2013-09-20 21:01:00,64.0,61.3,29.70,West,263,0.0,0.0,91,0.00,,---,0.01,VWS V14.01,2013-09-21 01:01:00,
2013-09-20 21:06:00,63.8,61.4,29.70,West,263,0.0,2.0,92,0.00,,---,0.01,VWS V14.01,2013-09-21 01:06:00,
2013-09-20 21:11:00,63.6,61.2,29.70,West,263,0.0,2.0,92,0.00,,---,0.01,VWS V14.01,2013-09-21 01:11:00,
2013-09-20 21:16:00,63.5,61.1,29.70,West,263,0.0,2.0,92,0.00,,---,0.01,VWS V14.01,2013-09-21 01:16:00,
2013-09-20 21:22:00,63.5,61.1,29.70,West,263,0.0,2.0,92,0.00,,---,0.01,VWS V14.01,2013-09-21 01:22:00,
2013-09-20 21:27:00,63.3,61.2,29.70,West,263,0.0,2.0,93,0.00,,---,0.01,VWS V14.01,2013-09-21 01:27:00,
2013-09-20 21:30:00,64.3,61.3,29.70,West,263,0.0,3.0,90,0.01,,---,0.01,VWS V14.01,2013-09-21 01:30:00,
2013-09-20 21:32:00,63.3,60.9,29.70,West,263,0.0,2.0,92,0.00,,---,0.01,VWS V14.01,2013-09-21 01:32:00,
2013-09-20 21:37:00,63.2,61.2,29.70,West,263,0.0,2.0,93,0.00,,---,0.01,VWS V14.01,2013-09-21 01:37:00,
2013-09-20 21:42:00,63.1,61.0,29.71,West,263,0.0,2.0,93,0.00,,---,0.01,VWS V14.01,2013-09-21 01:42:00,
2013-09-20 21:47:00,63.0,61.0,29.70,West,263,2.0,3.0,93,0.00,,---,0.01,VWS V14.01,2013-09-21 01:47:00,
2013-09-20 21:52:00,63.0,61.0,29.71,West,263,4.0,5.0,93,0.00,,---,0.01,VWS V14.01,2013-09-21 01:52:00,
2013-09-20 21:57:00,63.1,61.0,29.70,West,263,2.0,5.0,93,0.00,,---,0.01,VWS V14.01,2013-09-21 01:57:00,
2013-09-20 22:00:00,64.0,61.3,29.70,West,263,0.0,3.0,91,0.01,,---,0.01,VWS V14.01,2013-09-21 02:00:00,
2013-09-20 22:02:00,63.1,61.0,29.70,West,263,2.0,5.0,93,0.00,,---,0.01,VWS V14.01,2013-09-21 02:02:00,
2013-09-20 22:07:00,63.3,60.9,29.70,West,263,1.0,7.0,92,0.00,,---,0.01,VWS V14.01,2013-09-21 02:07:00,
2013-09-20 22:12:00,63.3,60.9,29.70,West,263,2.0,7.0,92,0.00,,---,0.01,VWS V14.01,2013-09-21 02:12:00,
2013-09-20 22:17:00,63.1,60.7,29.70,West,263,1.0,7.0,92,0.00,,---,0.01,VWS V14.01,2013-09-21 02:17:00,
2013-09-20 22:22:00,63.3,60.9,29.70,West,262,2.0,7.0,92,0.00,,---,0.01,VWS V14.01,2013-09-21 02:22:00,
2013-09-20 22:27:00,63.5,61.1,29.70,WSW,257,1.0,7.0,92,0.00,,---,0.01,VWS V14.01,2013-09-21 02:27:00,
2013-09-20 22:30:00,63.3,61.2,29.70,West,263,0.0,2.0,93,0.00,,---,0.01,VWS V14.01,2013-09-21 02:30:00,
2013-09-20 22:32:00,63.3,60.6,29.70,WSW,257,0.0,4.0,91,0.00,,---,0.01,VWS V14.01,2013-09-21 02:32:00,
2013-09-20 22:37:00,63.0,60.0,29.70,NNW,345,14.0,15.0,90,0.00,,---,0.01,VWS V14.01,2013-09-21 02:37:00,
2013-09-20 22:42:00,62.4,58.8,29.70,North,352,13.0,21.0,88,0.00,,---,0.01,VWS V14.01,2013-09-21 02:42:00,
2013-09-20 22:47:00,61.7,57.8,29.71,North,359,12.0,21.0,87,0.00,,---,0.01,VWS V14.01,2013-09-21 02:47:00,
2013-09-20 22:52:00,61.3,57.1,29.71,NNE,13,8.0,21.0,86,0.00,,---,0.01,VWS V14.01,2013-09-21 02:52:00,
2013-09-20 22:57:00,60.8,56.6,29.71,NNE,17,8.0,21.0,86,0.00,,---,0.01,VWS V14.01,2013-09-21 02:57:00,
2013-09-20 23:00:00,63.2,61.2,29.71,West,263,0.0,5.0,93,0.00,,---,0.01,VWS V14.01,2013-09-21 03:00:00,
2013-09-20 23:02:00,60.5,56.6,29.71,North,6,11.0,14.0,87,0.00,,---,0.01,VWS V14.01,2013-09-21 03:02:00,
2013-09-20 23:07:00,60.2,56.3,29.71,North,4,10.0,14.0,87,0.00,,---,0.01,VWS V14.01,2013-09-21 03:07:00,
2013-09-20 23:12:00,60.0,56.1,29.71,NNW,340,7.0,14.0,87,0.00,,---,0.01,VWS V14.01,2013-09-21 03:12:00,
2013-09-20 23:17:00,60.0,56.4,29.71,North,349,9.0,14.0,88,0.00,,---,0.01,VWS V14.01,2013-09-21 03:17:00,
2013-09-20 23:22:00,59.9,56.0,29.71,North,349,11.0,14.0,87,0.00,,---,0.01,VWS V14.01,2013-09-21 03:22:00,
2013-09-20 23:28:00,59.8,55.6,29.72,NW,317,7.0,17.0,86,0.00,,---,0.01,VWS V14.01,2013-09-21 03:28:00,
2013-09-20 23:30:00,63.5,61.1,29.70,WSW,257,2.0,7.0,92,0.00,,---,0.01,VWS V14.01,2013-09-21 03:30:00,
2013-09-20 23:32:00,59.9,55.7,29.72,North,358,11.0,13.0,86,0.00,,---,0.01,VWS V14.01,2013-09-21 03:32:00,
2013-09-20 23:38:00,59.7,55.5,29.72,North,7,11.0,13.0,86,0.00,,---,0.01,VWS V14.01,2013-09-21 03:38:00,
2013-09-20 23:43:00,59.7,55.5,29.72,North,359,7.0,17.0,86,0.00,,---,0.01,VWS V14.01,2013-09-21 03:43:00,
2013-09-20 23:48:00,59.7,55.5,29.72,North,358,5.0,17.0,86,0.00,,---,0.01,VWS V14.01,2013-09-21 03:48:00,
2013-09-20 23:53:00,59.5,55.3,29.72,North,351,4.0,17.0,86,0.00,,---,0.01,VWS V14.01,2013-09-21 03:53:00,
2013-09-20 23:58:00,59.6,55.4,29.72,NNW,347,5.0,17.0,86,0.00,,---,0.01,VWS V14.01,2013-09-21 03:58:00,